Time;durP1;ratioP1;P1;durP2;ratioP2;P2;SDS_P1;SDS_P2;PMS_P1;PMS_P2;Temp;Humidity;BMP_temperature;BMP_pressure;BME280_temperature;BME280_humidity;BME280_pressure;Samples;Min_cycle;Max_cycle;Signal;HPM_P1;HPM_P2
2021/05/03 00:18:46;;;;;;;4.10;2.47;;;7.10;87.00;;;;;;5016389;28;20034;-88
2021/05/03 00:24:33;;;;;;;5.47;2.83;;;7.10;87.20;;;;;;5033339;28;20095;-88
2021/05/03 00:26:59;;;;;;;5.72;2.40;;;7.10;87.70;;;;;;4981963;28;20561;-88
2021/05/03 00:29:25;;;;;;;6.10;2.85;;;7.10;87.90;;;;;;4978230;28;20363;-86
2021/05/03 00:31:50;;;;;;;4.97;2.67;;;7.10;87.20;;;;;;5016052;28;20026;-88
2021/05/03 00:34:16;;;;;;;5.18;3.10;;;7.10;87.10;;;;;;4977867;28;20065;-87
2021/05/03 00:36:42;;;;;;;5.05;2.40;;;7.10;87.40;;;;;;4985669;28;20030;-86
2021/05/03 00:39:08;;;;;;;4.60;2.70;;;7.00;86.10;;;;;;4978435;28;20565;-86
2021/05/03 00:41:34;;;;;;;4.85;2.65;;;7.00;85.90;;;;;;4994604;28;20038;-87
2021/05/03 00:44:00;;;;;;;5.88;2.80;;;6.90;86.00;;;;;;4981485;28;20033;-86
2021/05/03 00:46:25;;;;;;;3.97;2.45;;;6.80;86.20;;;;;;4981571;28;20026;-85
2021/05/03 00:48:51;;;;;;;5.72;2.90;;;6.70;86.70;;;;;;4978092;28;20578;-87
2021/05/03 00:51:17;;;;;;;3.90;2.70;;;6.70;86.40;;;;;;4981818;28;20057;-87
2021/05/03 00:53:43;;;;;;;5.55;3.08;;;6.60;87.40;;;;;;4981943;28;20037;-87
2021/05/03 00:56:12;;;;;;;7.03;3.05;;;6.60;87.40;;;;;;4982761;28;20037;-86
2021/05/03 01:02:03;;;;;;;4.88;2.60;;;6.60;88.80;;;;;;5015665;28;20505;-86
2021/05/03 01:04:29;;;;;;;5.13;3.00;;;6.60;88.90;;;;;;4981324;28;20061;-86
2021/05/03 01:06:56;;;;;;;4.43;2.92;;;6.60;88.60;;;;;;4973272;28;20058;-86
2021/05/03 01:09:22;;;;;;;5.47;3.30;;;6.60;88.60;;;;;;4978566;28;20061;-86
2021/05/03 01:11:50;;;;;;;6.47;3.30;;;6.60;89.60;;;;;;4987488;28;20079;-87
2021/05/03 01:14:15;;;;;;;5.05;3.00;;;6.60;89.80;;;;;;5000724;28;20052;-86
2021/05/03 01:16:41;;;;;;;4.80;3.17;;;6.60;89.90;;;;;;4996166;28;20470;-85
2021/05/03 01:19:07;;;;;;;4.85;3.13;;;6.60;89.90;;;;;;4980711;28;20062;-85
2021/05/03 01:21:32;;;;;;;6.05;3.35;;;6.60;89.90;;;;;;4981619;28;20036;-88
2021/05/03 01:24:08;;;;;;;5.20;3.20;;;6.60;89.40;;;;;;4990255;28;20042;-87
2021/05/03 01:29:56;;;;;;;6.75;3.40;;;6.50;89.40;;;;;;5035189;28;20025;-87
2021/05/03 01:32:21;;;;;;;7.13;3.47;;;6.40;89.80;;;;;;5000373;28;20029;-87
2021/05/03 01:34:48;;;;;;;5.63;3.80;;;6.40;90.00;;;;;;5002180;28;20116;-87
2021/05/03 01:37:14;;;;;;;6.50;3.85;;;6.40;90.20;;;;;;4989312;28;20116;-86
2021/05/03 01:39:40;;;;;;;6.10;3.78;;;6.40;90.40;;;;;;5000274;28;20030;-87
2021/05/03 01:42:09;;;;;;;5.72;3.70;;;6.40;90.40;;;;;;5001578;28;20129;-90
2021/05/03 01:44:35;;;;;;;8.20;3.80;;;6.40;90.50;;;;;;4985986;28;20394;-89
2021/05/03 01:47:03;;;;;;;5.28;3.50;;;6.40;90.30;;;;;;5017464;28;20036;-89
2021/05/03 01:49:29;;;;;;;6.15;3.58;;;6.40;90.10;;;;;;5012679;28;20018;-89
2021/05/03 01:51:55;;;;;;;6.60;4.00;;;6.30;90.00;;;;;;4981078;28;20030;-89
2021/05/03 01:54:22;;;;;;;5.68;3.60;;;6.30;90.30;;;;;;4982080;28;20037;-89
2021/05/03 01:56:57;;;;;;;7.00;3.85;;;6.30;90.10;;;;;;4997854;28;20070;-88
2021/05/03 02:02:49;;;;;;;6.45;3.90;;;6.30;90.30;;;;;;5014766;28;20049;-88
2021/05/03 02:05:25;;;;;;;5.47;3.85;;;6.30;90.70;;;;;;4981516;28;20069;-87
2021/05/03 02:11:09;;;;;;;6.90;4.10;;;6.20;90.50;;;;;;5018731;28;20169;-88
2021/05/03 02:17:25;;;;;;;8.43;4.43;;;6.20;90.50;;;;;;5018306;28;20064;-88
2021/05/03 02:24:03;;;;;;;6.68;4.50;;;6.20;91.00;;;;;;5018138;28;20073;-88
2021/05/03 02:30:42;;;;;;;7.60;4.32;;;6.00;91.10;;;;;;5021117;28;20106;-88
2021/05/03 02:37:20;;;;;;;7.60;4.50;;;6.00;91.40;;;;;;5032767;28;20100;-89
2021/05/03 02:46:40;;;;;;;6.10;4.13;;;5.90;91.40;;;;;;5018191;28;20057;-87
2021/05/03 02:53:12;;;;;;;7.38;4.88;;;5.90;91.30;;;;;;5018342;28;20114;-87
2021/05/03 02:59:18;;;;;;;6.93;4.35;;;5.90;91.20;;;;;;5018239;28;20024;-87
2021/05/03 03:05:52;;;;;;;6.57;4.70;;;5.80;91.30;;;;;;5017727;28;20117;-88
2021/05/03 03:08:17;;;;;;;6.85;5.00;;;5.80;91.30;;;;;;5000113;28;20494;-87
2021/05/03 03:10:43;;;;;;;10.30;5.28;;;5.80;91.30;;;;;;4983855;28;20121;-87
2021/05/03 03:13:09;;;;;;;8.43;4.78;;;5.80;91.40;;;;;;5017420;28;20109;-87
2021/05/03 03:15:51;;;;;;;7.93;4.80;;;5.80;91.60;;;;;;4984072;28;20033;-87
2021/05/03 03:18:17;;;;;;;7.15;4.85;;;5.80;91.60;;;;;;5017234;28;20030;-88
2021/05/03 03:20:43;;;;;;;6.30;4.38;;;5.80;91.50;;;;;;4984613;28;20025;-88
2021/05/03 03:23:09;;;;;;;8.07;4.93;;;5.70;91.40;;;;;;5006962;28;20410;-88
2021/05/03 03:25:35;;;;;;;6.82;4.85;;;5.70;91.10;;;;;;4984232;28;20038;-88
2021/05/03 03:28:01;;;;;;;7.13;4.90;;;5.70;91.20;;;;;;5000818;28;20496;-87
2021/05/03 03:30:26;;;;;;;8.90;5.10;;;5.70;91.30;;;;;;4999745;28;20025;-87
2021/05/03 03:32:52;;;;;;;8.43;4.90;;;5.70;91.40;;;;;;4999858;28;20467;-87
2021/05/03 03:36:01;;;;;;;8.82;4.95;;;5.60;91.30;;;;;;4999741;28;20034;-87
2021/05/03 03:41:59;;;;;;;7.68;5.05;;;5.60;91.30;;;;;;5016814;28;20509;-87
2021/05/03 03:47:57;;;;;;;8.88;5.40;;;5.50;91.30;;;;;;5016953;28;20045;-88
2021/05/03 03:54:10;;;;;;;9.23;5.82;;;5.50;91.60;;;;;;5016726;28;20116;-88
2021/05/03 04:00:20;;;;;;;8.98;5.38;;;5.50;91.50;;;;;;5016470;28;20032;-88
2021/05/03 04:06:57;;;;;;;8.95;5.43;;;5.40;91.90;;;;;;5016386;28;20025;-87
2021/05/03 04:25:21;;;;;;;10.95;6.05;;;5.30;91.80;;;;;;4922107;29;20111;-88
2021/05/03 04:27:46;;;;;;;8.93;6.63;;;5.30;91.80;;;;;;4995062;28;20076;-87
2021/05/03 04:30:14;;;;;;;11.13;7.25;;;5.20;91.80;;;;;;4982072;28;20026;-87
2021/05/03 04:39:58;;;;;;;12.63;7.78;;;5.10;91.90;;;;;;5015123;28;20039;-88
2021/05/03 04:42:24;;;;;;;12.52;8.15;;;5.10;91.80;;;;;;4982112;28;20037;-87
2021/05/03 04:44:49;;;;;;;12.65;7.13;;;5.10;91.70;;;;;;4982249;28;20034;-87
2021/05/03 04:50:42;;;;;;;11.18;7.63;;;5.10;91.90;;;;;;5014415;28;20474;-87
2021/05/03 05:17:24;;;;;;;11.25;6.50;;;5.30;91.80;;;;;;5014302;28;20025;-88
2021/05/03 05:23:49;;;;;;;12.77;7.60;;;5.40;91.60;;;;;;5015342;28;20536;-87
2021/05/03 05:26:15;;;;;;;11.25;7.25;;;5.40;91.50;;;;;;4996112;28;20088;-87
2021/05/03 05:28:41;;;;;;;12.13;7.05;;;5.40;91.40;;;;;;4997523;28;20034;-87
2021/05/03 05:31:06;;;;;;;11.38;7.15;;;5.40;91.40;;;;;;5013662;28;20030;-87
2021/05/03 05:33:32;;;;;;;9.35;6.25;;;5.40;91.30;;;;;;4982129;28;20034;-88
2021/05/03 05:39:26;;;;;;;10.50;7.18;;;5.50;91.50;;;;;;5014443;28;20548;-86
2021/05/03 05:48:40;;;;;;;10.43;6.35;;;5.50;91.50;;;;;;5015185;28;20117;-86
2021/05/03 05:54:31;;;;;;;8.95;6.57;;;5.60;91.50;;;;;;5014531;28;20056;-87
2021/05/03 05:56:57;;;;;;;11.35;6.60;;;5.60;91.40;;;;;;4997320;28;20205;-89
2021/05/03 05:59:26;;;;;;;9.60;6.97;;;5.70;91.40;;;;;;4996621;28;20057;-89
2021/05/03 06:01:52;;;;;;;10.65;6.75;;;5.70;91.40;;;;;;4996585;28;20021;-88
2021/05/03 06:04:17;;;;;;;11.85;7.30;;;5.80;91.20;;;;;;5014162;28;20025;-91
2021/05/03 06:06:53;;;;;;;10.30;6.60;;;5.80;91.10;;;;;;4980804;28;20467;-89
2021/05/03 06:09:19;;;;;;;10.80;6.72;;;5.90;91.10;;;;;;4997104;28;20021;-90
2021/05/03 06:11:45;;;;;;;11.10;6.82;;;5.90;91.00;;;;;;4996751;28;20048;-89
2021/05/03 06:14:10;;;;;;;9.40;6.35;;;5.90;90.90;;;;;;4986204;28;20034;-91
2021/05/03 06:16:36;;;;;;;10.63;6.20;;;6.00;90.90;;;;;;4969243;28;20054;-91
2021/05/03 06:19:21;;;;;;;10.00;6.78;;;6.00;90.70;;;;;;4980120;28;20030;-89
2021/05/03 06:21:46;;;;;;;10.10;6.70;;;6.10;90.70;;;;;;5014378;28;20490;-85
2021/05/03 06:24:12;;;;;;;9.88;6.25;;;6.10;90.60;;;;;;4980504;28;20038;-86
2021/05/03 06:26:38;;;;;;;10.32;6.40;;;6.20;90.50;;;;;;4979764;28;20111;-91
2021/05/03 06:29:03;;;;;;;8.73;5.57;;;6.20;90.40;;;;;;4980465;28;20544;-87
2021/05/03 06:31:31;;;;;;;8.75;5.85;;;6.30;90.40;;;;;;4980585;28;20432;-87
2021/05/03 06:33:57;;;;;;;9.93;5.60;;;6.30;90.30;;;;;;4977121;28;20034;-86
2021/05/03 06:36:23;;;;;;;11.15;5.57;;;6.40;90.10;;;;;;5006804;28;20026;-86
2021/05/03 06:38:48;;;;;;;8.57;5.40;;;6.40;89.90;;;;;;4996575;28;20548;-87
2021/05/03 06:41:14;;;;;;;10.15;5.43;;;6.50;89.30;;;;;;4980406;28;20061;-86
2021/05/03 06:43:40;;;;;;;10.98;5.35;;;6.50;88.80;;;;;;4996307;28;20038;-87
2021/05/03 06:46:05;;;;;;;8.20;5.07;;;6.60;88.30;;;;;;4996557;28;20466;-86
2021/05/03 06:48:31;;;;;;;10.80;5.07;;;6.60;87.80;;;;;;4996068;28;20100;-86
2021/05/03 06:50:57;;;;;;;7.10;4.85;;;6.70;87.40;;;;;;4980492;28;20034;-87
2021/05/03 06:56:46;;;;;;;9.43;5.32;;;6.90;85.90;;;;;;5017741;28;20383;-86
2021/05/03 06:59:12;;;;;;;9.13;5.43;;;6.90;85.10;;;;;;4980435;28;20031;-86
2021/05/03 07:01:38;;;;;;;9.10;4.80;;;7.00;84.70;;;;;;4983846;28;20026;-87
2021/05/03 07:04:03;;;;;;;6.25;4.40;;;7.00;85.10;;;;;;5000155;28;20030;-86
2021/05/03 07:06:31;;;;;;;6.57;4.30;;;7.10;84.60;;;;;;5007165;28;20077;-86
2021/05/03 07:08:56;;;;;;;9.85;4.97;;;7.10;84.20;;;;;;5002668;28;20026;-86
2021/05/03 07:11:27;;;;;;;9.38;4.78;;;7.20;83.90;;;;;;5015891;28;20030;-86
2021/05/03 07:13:54;;;;;;;6.30;4.32;;;7.20;84.00;;;;;;5000456;28;20033;-86
2021/05/03 07:16:19;;;;;;;7.97;4.88;;;7.20;84.00;;;;;;4999435;28;20112;-87
2021/05/03 07:18:45;;;;;;;8.15;4.68;;;7.30;84.00;;;;;;4983535;28;20060;-87
2021/05/03 07:21:11;;;;;;;8.13;4.78;;;7.40;83.60;;;;;;4967414;28;20054;-88
2021/05/03 07:23:39;;;;;;;9.48;4.45;;;7.40;83.20;;;;;;4983367;28;20052;-89
2021/05/03 07:26:30;;;;;;;8.52;4.80;;;7.50;83.00;;;;;;4999439;28;20030;-88
2021/05/03 07:32:28;;;;;;;7.88;4.63;;;7.60;82.60;;;;;;5016919;28;20036;-87
2021/05/03 07:34:53;;;;;;;8.27;5.00;;;7.70;82.80;;;;;;4999366;28;20074;-88
2021/05/03 07:37:19;;;;;;;8.27;5.32;;;7.80;83.00;;;;;;5000626;28;20402;-88
2021/05/03 07:40:06;;;;;;;7.18;4.93;;;7.80;83.10;;;;;;4982738;28;20045;-87
2021/05/03 07:42:32;;;;;;;9.95;6.18;;;7.90;83.50;;;;;;4993607;28;20479;-87
2021/05/03 07:44:58;;;;;;;10.00;6.22;;;8.00;83.10;;;;;;4982502;28;20034;-88
2021/05/03 07:47:27;;;;;;;12.43;8.10;;;8.10;83.10;;;;;;5014690;28;20040;-88
2021/05/03 07:49:53;;;;;;;11.25;7.68;;;8.30;83.10;;;;;;4998776;28;20084;-88
2021/05/03 07:52:19;;;;;;;12.65;8.18;;;8.40;82.00;;;;;;4982151;28;20022;-87
2021/05/03 07:54:47;;;;;;;14.00;9.00;;;8.50;82.00;;;;;;4982776;28;20384;-86
2021/05/03 07:57:13;;;;;;;11.65;8.38;;;8.60;81.90;;;;;;4998873;28;20014;-86
2021/05/03 07:59:39;;;;;;;13.68;9.60;;;8.80;81.90;;;;;;4996121;28;20123;-90
2021/05/03 08:02:07;;;;;;;12.95;9.68;;;8.90;80.90;;;;;;4997376;28;20187;-91
2021/05/03 08:04:33;;;;;;;14.80;9.07;;;9.10;80.90;;;;;;4980996;28;20032;-88
2021/05/03 08:07:00;;;;;;;14.05;10.18;;;9.20;80.10;;;;;;4998358;28;20017;-89
2021/05/03 08:09:27;;;;;;;16.70;10.25;;;9.30;79.80;;;;;;4997642;28;20032;-88
2021/05/03 08:11:53;;;;;;;13.85;9.82;;;9.50;79.10;;;;;;4994264;28;20137;-89
2021/05/03 08:14:21;;;;;;;14.25;10.10;;;9.60;78.70;;;;;;4997832;28;20064;-88
2021/05/03 08:16:55;;;;;;;13.52;10.40;;;9.70;78.40;;;;;;4997362;28;20022;-90
2021/05/03 08:19:22;;;;;;;16.98;9.60;;;9.80;77.40;;;;;;4997512;28;20034;-88
2021/05/03 08:21:49;;;;;;;13.88;10.05;;;9.90;76.60;;;;;;4977001;28;20027;-88
2021/05/03 08:24:14;;;;;;;15.98;10.57;;;10.00;77.10;;;;;;4997122;28;20025;-88
2021/05/03 08:26:40;;;;;;;13.65;9.82;;;10.10;76.50;;;;;;5017486;28;20032;-85
2021/05/03 08:29:06;;;;;;;15.60;10.77;;;10.20;76.50;;;;;;4998152;28;20049;-87
2021/05/03 08:31:32;;;;;;;14.60;10.63;;;10.30;76.80;;;;;;4981418;28;20026;-87
2021/05/03 08:34:00;;;;;;;13.43;10.68;;;10.40;76.30;;;;;;5013253;28;20042;-88
2021/05/03 08:36:28;;;;;;;13.43;10.35;;;10.50;76.20;;;;;;4963653;28;20049;-89
2021/05/03 08:38:56;;;;;;;14.90;11.02;;;10.70;75.20;;;;;;5012512;28;20018;-90
2021/05/03 08:41:22;;;;;;;15.57;10.70;;;10.80;74.60;;;;;;4995711;28;20025;-88
2021/05/03 08:43:51;;;;;;;15.75;10.93;;;10.80;74.50;;;;;;4961611;28;20034;-89
2021/05/03 08:46:26;;;;;;;15.20;10.77;;;10.90;74.90;;;;;;4995809;28;20030;-88
2021/05/03 08:49:02;;;;;;;14.05;10.68;;;11.00;73.60;;;;;;4996345;28;20022;-90
2021/05/03 08:54:19;;;;;;;14.13;10.45;;;11.20;72.40;;;;;;5010199;28;20040;-91
2021/05/03 08:56:45;;;;;;;15.32;10.68;;;11.20;73.30;;;;;;4995613;28;20033;-89
2021/05/03 08:59:12;;;;;;;13.85;11.20;;;11.30;72.90;;;;;;4979590;28;20490;-89
2021/05/03 09:01:38;;;;;;;14.15;10.30;;;11.40;73.20;;;;;;4980201;28;20037;-88
2021/05/03 09:04:06;;;;;;;15.18;10.70;;;11.40;73.90;;;;;;4995070;28;20041;-89
2021/05/03 09:06:31;;;;;;;13.93;10.63;;;11.50;74.00;;;;;;4996139;28;20021;-90
2021/05/03 09:09:06;;;;;;;15.50;11.10;;;11.60;74.00;;;;;;4995741;28;20026;-89
2021/05/03 09:11:36;;;;;;;16.27;10.45;;;11.70;72.60;;;;;;4991939;28;20014;-88
2021/05/03 09:14:12;;;;;;;16.53;11.90;;;11.80;72.70;;;;;;4995675;28;20040;-88
2021/05/03 09:16:44;;;;;;;15.45;11.18;;;11.90;72.40;;;;;;5006822;28;20022;-87
2021/05/03 09:19:11;;;;;;;13.57;10.27;;;12.00;73.00;;;;;;4994727;28;20072;-88
2021/05/03 09:21:37;;;;;;;13.52;10.55;;;12.10;71.90;;;;;;5000861;28;20034;-88
2021/05/03 09:24:34;;;;;;;13.93;10.32;;;12.20;71.80;;;;;;4990815;28;20030;-89
2021/05/03 09:27:04;;;;;;;12.35;9.68;;;12.30;69.80;;;;;;4961967;28;20026;-88
2021/05/03 09:29:44;;;;;;;14.30;10.90;;;12.30;70.20;;;;;;4989004;28;20037;-90
2021/05/03 09:32:21;;;;;;;13.15;9.20;;;12.40;69.30;;;;;;5006296;28;20088;-95
2021/05/03 09:34:56;;;;;;;12.27;9.68;;;12.50;68.50;;;;;;4995533;28;20034;-90
2021/05/03 09:37:32;;;;;;;11.95;9.45;;;12.50;68.40;;;;;;4995624;28;20018;-90
2021/05/03 09:40:14;;;;;;;14.93;9.15;;;12.60;69.00;;;;;;4995715;28;20024;-88
2021/05/03 09:42:45;;;;;;;12.98;9.20;;;12.60;67.70;;;;;;4995670;28;20053;-88
2021/05/03 09:45:19;;;;;;;12.25;9.45;;;12.70;67.70;;;;;;4993348;28;20026;-87
2021/05/03 09:47:47;;;;;;;11.38;9.00;;;12.80;68.20;;;;;;4999424;28;20084;-89
2021/05/03 09:50:25;;;;;;;14.52;8.43;;;12.80;68.40;;;;;;4995228;28;20056;-89
2021/05/03 09:53:23;;;;;;;12.55;9.32;;;13.00;67.90;;;;;;4999463;28;20064;-93
2021/05/03 09:55:53;;;;;;;12.68;9.25;;;13.10;66.80;;;;;;4957481;28;20365;-88
2021/05/03 09:58:23;;;;;;;12.25;9.25;;;13.20;65.60;;;;;;5003390;28;20038;-88
2021/05/03 10:00:51;;;;;;;10.50;8.35;;;13.20;66.00;;;;;;4995227;28;20026;-89
2021/05/03 10:06:05;;;;;;;12.27;9.35;;;13.40;66.60;;;;;;5006523;28;20112;-88
2021/05/03 10:08:30;;;;;;;12.02;8.65;;;13.40;64.80;;;;;;4991497;28;20113;-87
2021/05/03 10:11:03;;;;;;;11.55;8.40;;;13.50;64.70;;;;;;4998614;28;20544;-91
2021/05/03 10:13:29;;;;;;;9.90;8.50;;;13.50;65.70;;;;;;4995370;28;20017;-88
2021/05/03 10:15:58;;;;;;;10.77;9.25;;;13.50;64.90;;;;;;4995183;28;20049;-88
2021/05/03 10:18:25;;;;;;;13.52;8.88;;;13.60;65.70;;;;;;4996103;28;20014;-90
2021/05/03 10:20:54;;;;;;;11.65;8.55;;;13.60;65.20;;;;;;4984299;28;20042;-87
2021/05/03 10:23:23;;;;;;;10.80;8.35;;;13.70;65.30;;;;;;4978834;28;20022;-87
2021/05/03 10:25:54;;;;;;;11.95;8.60;;;13.70;64.80;;;;;;5008493;28;20022;-89
2021/05/03 10:28:19;;;;;;;;;;;13.80;64.80;;;;;;4989096;28;20037;-88
2021/05/03 10:30:48;;;;;;;11.15;8.57;;;13.80;65.50;;;;;;5015729;28;19958;-87
2021/05/03 10:33:15;;;;;;;9.85;8.40;;;13.90;63.60;;;;;;4982961;28;20030;-87
2021/05/03 10:35:45;;;;;;;12.88;8.60;;;14.00;62.30;;;;;;4987021;28;20033;-87
2021/05/03 10:38:37;;;;;;;11.38;8.63;;;14.00;62.40;;;;;;4981713;28;20037;-86
2021/05/03 10:41:21;;;;;;;12.20;8.80;;;14.00;62.90;;;;;;4981811;28;20018;-86
2021/05/03 10:43:47;;;;;;;11.13;8.80;;;14.00;60.60;;;;;;5014064;28;20030;-87
2021/05/03 10:51:30;;;;;;;11.23;8.80;;;14.00;60.60;;;;;;5015210;28;20029;-88
2021/05/03 10:54:14;;;;;;;12.18;9.02;;;14.00;60.30;;;;;;4983763;28;20494;-87
2021/05/03 10:56:41;;;;;;;12.15;9.60;;;14.10;60.30;;;;;;4997859;28;20370;-87
2021/05/03 10:59:10;;;;;;;12.10;8.43;;;14.10;61.90;;;;;;4995618;28;20113;-86
2021/05/03 11:01:55;;;;;;;11.02;9.20;;;14.10;62.60;;;;;;5011652;28;20114;-89
2021/05/03 11:04:28;;;;;;;10.82;8.25;;;14.20;60.10;;;;;;4999087;28;20080;-86
2021/05/03 11:06:57;;;;;;;11.10;7.85;;;14.30;56.70;;;;;;4998226;28;20374;-88
2021/05/03 11:09:42;;;;;;;12.35;8.88;;;14.30;56.60;;;;;;4984310;28;20466;-88
2021/05/03 11:12:12;;;;;;;13.93;9.40;;;14.20;56.90;;;;;;5015294;28;20044;-87
2021/05/03 11:15:02;;;;;;;12.95;8.45;;;14.20;57.50;;;;;;4984003;28;20040;-87
2021/05/03 11:17:27;;;;;;;10.93;8.48;;;14.20;57.10;;;;;;4998320;28;20018;-87
2021/05/03 11:22:43;;;;;;;9.52;7.55;;;14.20;57.60;;;;;;5003373;28;20034;-86
2021/05/03 11:25:21;;;;;;;9.50;7.28;;;14.30;57.70;;;;;;4985063;28;20462;-88
2021/05/03 11:30:45;;;;;;;9.00;6.78;;;14.40;56.70;;;;;;4991265;28;20093;-88
2021/05/03 11:33:16;;;;;;;10.20;6.07;;;14.50;57.30;;;;;;5011348;28;20028;-87
2021/05/03 11:41:09;;;;;;;9.25;6.95;;;14.60;55.00;;;;;;5014216;28;20038;-88
2021/05/03 11:44:09;;;;;;;10.27;6.40;;;14.70;55.00;;;;;;4998010;28;20474;-87
2021/05/03 11:46:36;;;;;;;9.50;6.97;;;14.70;54.10;;;;;;4993368;28;20470;-87
2021/05/03 11:49:15;;;;;;;8.48;6.60;;;14.70;52.40;;;;;;4997493;28;20268;-88
2021/05/03 11:51:55;;;;;;;8.32;6.25;;;14.70;52.10;;;;;;4997503;28;20029;-88
2021/05/03 11:54:32;;;;;;;10.18;7.20;;;14.70;53.00;;;;;;4997566;28;20471;-87
2021/05/03 11:57:12;;;;;;;10.25;7.05;;;14.80;52.60;;;;;;4965314;28;20153;-87
2021/05/03 11:59:38;;;;;;;8.18;6.25;;;14.80;53.40;;;;;;4997409;28;20014;-87
2021/05/03 12:02:09;;;;;;;8.40;6.15;;;14.80;54.00;;;;;;4997438;28;20022;-86
2021/05/03 12:04:42;;;;;;;8.32;6.35;;;14.90;51.60;;;;;;4997183;28;20105;-87
2021/05/03 12:07:29;;;;;;;8.35;6.57;;;14.90;52.70;;;;;;4997493;28;20022;-87
2021/05/03 12:10:13;;;;;;;7.38;5.93;;;14.90;53.10;;;;;;4985324;28;20481;-86
2021/05/03 12:12:52;;;;;;;8.50;6.70;;;15.00;52.60;;;;;;4988998;28;20021;-88
2021/05/03 12:15:26;;;;;;;9.02;6.25;;;15.00;51.10;;;;;;4987588;28;20054;-88
2021/05/03 12:17:57;;;;;;;9.73;7.05;;;15.00;52.40;;;;;;4994856;28;20013;-88
2021/05/03 12:20:27;;;;;;;8.90;7.45;;;15.00;51.80;;;;;;4988194;28;20023;-87
2021/05/03 12:23:00;;;;;;;10.33;7.30;;;15.00;50.90;;;;;;4992775;28;20030;-86
2021/05/03 12:25:43;;;;;;;8.98;7.00;;;15.00;50.50;;;;;;4997043;28;20018;-88
2021/05/03 12:28:19;;;;;;;8.20;6.10;;;15.00;51.90;;;;;;5009864;28;20066;-87
2021/05/03 12:30:46;;;;;;;12.40;7.60;;;15.00;53.00;;;;;;5000351;28;20028;-88
2021/05/03 12:33:16;;;;;;;8.13;5.82;;;15.10;51.90;;;;;;4997079;28;20032;-87
2021/05/03 12:35:52;;;;;;;8.43;6.68;;;15.10;53.30;;;;;;4977686;28;20133;-86
2021/05/03 12:38:28;;;;;;;7.70;6.38;;;15.10;53.20;;;;;;4993865;28;20038;-88
2021/05/03 12:40:55;;;;;;;8.38;6.88;;;15.10;52.30;;;;;;4996571;28;20079;-87
2021/05/03 12:43:26;;;;;;;8.57;6.40;;;15.10;53.20;;;;;;4994942;28;20079;-89
2021/05/03 12:46:04;;;;;;;7.80;5.90;;;15.10;53.30;;;;;;4994515;28;20371;-89
2021/05/03 12:48:42;;;;;;;7.55;6.75;;;15.20;55.10;;;;;;4994842;28;20026;-86
2021/05/03 12:51:18;;;;;;;10.02;7.40;;;15.20;53.30;;;;;;4982101;28;20014;-88
2021/05/03 12:56:55;;;;;;;9.45;6.65;;;15.20;51.20;;;;;;5012730;28;20064;-89
2021/05/03 12:59:35;;;;;;;7.53;5.97;;;15.20;51.50;;;;;;4993083;28;20014;-89
2021/05/03 13:04:56;;;;;;;7.75;6.30;;;15.30;50.90;;;;;;5007748;28;20465;-86
2021/05/03 13:29:46;;;;;;;9.63;5.60;;;15.20;51.00;;;;;;4993455;28;20060;-86
2021/05/03 13:32:20;;;;;;;7.43;5.20;;;15.30;49.20;;;;;;4965577;28;20105;-86
2021/05/03 13:34:47;;;;;;;8.98;5.72;;;15.40;49.10;;;;;;4992739;28;20038;-89
2021/05/03 13:37:14;;;;;;;7.15;5.50;;;15.50;50.70;;;;;;4959262;28;20387;-86
2021/05/03 13:39:40;;;;;;;7.82;5.68;;;15.50;49.20;;;;;;4975338;28;20101;-86
2021/05/03 13:42:08;;;;;;;7.32;5.45;;;15.50;48.50;;;;;;4974325;28;20022;-85
2021/05/03 13:44:34;;;;;;;7.80;5.60;;;15.50;47.20;;;;;;4975752;28;20042;-85
2021/05/03 13:47:00;;;;;;;6.97;5.10;;;15.50;46.70;;;;;;4975244;28;20432;-86
2021/05/03 13:49:26;;;;;;;6.78;4.88;;;15.40;48.00;;;;;;4959327;28;20050;-87
2021/05/03 13:51:51;;;;;;;6.85;4.20;;;15.40;49.00;;;;;;4967265;28;20038;-85
2021/05/03 13:54:17;;;;;;;6.47;5.28;;;15.50;48.60;;;;;;4972639;28;20113;-85
2021/05/03 13:56:43;;;;;;;6.45;4.78;;;15.50;47.60;;;;;;4956146;28;20031;-86
2021/05/03 13:59:08;;;;;;;7.28;4.82;;;15.50;48.30;;;;;;4959321;28;20056;-85
2021/05/03 14:01:34;;;;;;;6.95;5.07;;;15.60;46.90;;;;;;4957719;28;20035;-87
2021/05/03 14:04:00;;;;;;;7.00;4.82;;;15.60;46.70;;;;;;4963799;28;20037;-86
2021/05/03 14:06:26;;;;;;;7.28;5.18;;;15.60;46.20;;;;;;4996531;28;20069;-86
2021/05/03 14:08:52;;;;;;;6.35;5.30;;;15.60;46.50;;;;;;4961581;28;20037;-86
2021/05/03 14:11:18;;;;;;;7.10;4.65;;;15.60;45.60;;;;;;4979229;28;20370;-85
2021/05/03 14:13:44;;;;;;;7.60;4.90;;;15.60;45.70;;;;;;4979041;28;20026;-85
2021/05/03 14:16:10;;;;;;;11.23;5.00;;;15.60;46.90;;;;;;4962467;28;20023;-86
2021/05/03 14:18:36;;;;;;;7.30;5.22;;;15.70;46.30;;;;;;4979225;28;20112;-89
2021/05/03 14:21:07;;;;;;;8.60;5.45;;;15.70;44.20;;;;;;4978706;28;20424;-86
2021/05/03 14:23:32;;;;;;;7.55;4.68;;;15.60;43.50;;;;;;4979207;28;20037;-85
2021/05/03 14:25:59;;;;;;;8.43;4.60;;;15.60;44.10;;;;;;4996240;28;20101;-87
2021/05/03 14:28:29;;;;;;;7.88;4.72;;;15.60;45.40;;;;;;4984248;28;20494;-86
2021/05/03 14:30:59;;;;;;;6.10;4.00;;;15.60;43.80;;;;;;4946148;28;20027;-88
2021/05/03 14:33:28;;;;;;;5.67;4.47;;;15.60;44.90;;;;;;4977916;28;20026;-85
2021/05/03 14:35:54;;;;;;;7.93;4.45;;;15.70;44.10;;;;;;4989260;28;20045;-87
2021/05/03 14:38:20;;;;;;;4.80;3.40;;;15.70;42.20;;;;;;4978528;28;20026;-85
2021/05/03 14:40:46;;;;;;;6.57;4.10;;;15.70;43.60;;;;;;4978657;28;20528;-86
2021/05/03 14:43:13;;;;;;;5.40;3.45;;;15.80;43.20;;;;;;4977713;28;20471;-87
2021/05/03 14:48:23;;;;;;;6.30;4.03;;;16.00;46.00;;;;;;5006829;28;20038;-85
2021/05/03 14:53:51;;;;;;;7.07;3.22;;;16.20;42.00;;;;;;5007534;28;20061;-85
2021/05/03 14:56:16;;;;;;;4.28;2.75;;;16.20;39.80;;;;;;4977042;28;20050;-85
2021/05/03 14:58:42;;;;;;;4.90;2.95;;;16.00;40.50;;;;;;4953332;28;20122;-85
2021/05/03 15:01:08;;;;;;;6.10;3.20;;;16.10;41.30;;;;;;4966565;28;20113;-84
2021/05/03 15:03:33;;;;;;;6.43;3.33;;;16.00;41.20;;;;;;4962448;28;20035;-86
2021/05/03 15:06:01;;;;;;;5.68;3.47;;;16.00;41.90;;;;;;4978232;28;20089;-87
2021/05/03 15:08:28;;;;;;;5.85;3.50;;;16.10;41.10;;;;;;4970929;28;20041;-84
2021/05/03 15:10:54;;;;;;;6.70;3.40;;;16.20;40.00;;;;;;4965500;28;20022;-85
2021/05/03 15:13:35;;;;;;;6.40;4.03;;;16.10;41.50;;;;;;4977074;28;20026;-86
2021/05/03 15:16:12;;;;;;;5.28;3.35;;;16.10;40.10;;;;;;4990746;28;20042;-83
2021/05/03 15:21:37;;;;;;;5.95;4.03;;;16.10;41.50;;;;;;4981862;28;20041;-84
2021/05/03 15:24:08;;;;;;;7.43;3.92;;;16.20;42.60;;;;;;4993067;28;20027;-86
2021/05/03 15:26:35;;;;;;;7.63;4.05;;;16.20;42.50;;;;;;4957174;28;20031;-84
2021/05/03 15:29:19;;;;;;;6.07;4.00;;;16.10;41.20;;;;;;4966298;28;20419;-84
2021/05/03 15:34:29;;;;;;;8.25;4.32;;;16.00;41.40;;;;;;4998917;28;20061;-85
2021/05/03 15:36:55;;;;;;;6.53;4.47;;;15.90;41.50;;;;;;4995768;28;20049;-84
2021/05/03 15:39:20;;;;;;;6.93;4.45;;;15.90;42.30;;;;;;4996412;28;20026;-84
2021/05/03 15:41:46;;;;;;;6.47;4.30;;;15.90;42.10;;;;;;4962008;28;20023;-86
2021/05/03 15:44:20;;;;;;;8.30;4.20;;;15.80;42.40;;;;;;4992427;28;20032;-85
2021/05/03 15:46:46;;;;;;;6.93;4.20;;;15.70;42.80;;;;;;4989845;28;20061;-85
2021/05/03 15:49:13;;;;;;;6.88;4.32;;;15.60;42.70;;;;;;5005035;28;20482;-85
2021/05/03 15:51:39;;;;;;;8.65;4.75;;;15.60;41.90;;;;;;4974354;28;20034;-86
2021/05/03 15:54:06;;;;;;;6.43;4.15;;;15.40;43.00;;;;;;4985962;28;20042;-86
2021/05/03 15:56:35;;;;;;;6.78;4.03;;;15.40;43.10;;;;;;4995501;28;20040;-87
2021/05/03 15:59:02;;;;;;;6.43;4.07;;;15.40;44.10;;;;;;4990339;28;20804;-87
2021/05/03 16:01:28;;;;;;;6.53;3.97;;;15.40;44.50;;;;;;4976537;28;20367;-85
2021/05/03 16:03:55;;;;;;;6.90;4.68;;;15.40;45.00;;;;;;4994562;28;20057;-85
2021/05/03 16:06:20;;;;;;;8.10;4.35;;;15.40;44.30;;;;;;4973284;28;20112;-86
2021/05/03 16:08:46;;;;;;;7.72;4.43;;;15.40;43.60;;;;;;4989659;28;20125;-85
2021/05/03 16:11:13;;;;;;;9.02;4.70;;;15.40;42.80;;;;;;4995238;28;20026;-87
2021/05/03 16:13:39;;;;;;;7.32;4.68;;;15.40;44.00;;;;;;4995335;28;20477;-86
2021/05/03 16:16:05;;;;;;;5.40;4.18;;;15.40;44.20;;;;;;4995013;28;20113;-85
2021/05/03 16:18:40;;;;;;;6.10;4.22;;;15.40;43.20;;;;;;4979563;28;20026;-86
2021/05/03 16:21:06;;;;;;;7.70;4.22;;;15.40;43.70;;;;;;4992878;28;20489;-85
2021/05/03 16:23:32;;;;;;;6.80;4.40;;;15.50;43.40;;;;;;4993527;28;20470;-85
2021/05/03 16:25:57;;;;;;;6.65;4.38;;;15.50;43.30;;;;;;4978746;28;20466;-86
2021/05/03 16:28:23;;;;;;;5.97;4.20;;;15.50;44.70;;;;;;4993349;28;20438;-85
2021/05/03 16:30:49;;;;;;;7.70;4.00;;;15.50;43.80;;;;;;4979715;28;20030;-86
2021/05/03 16:33:16;;;;;;;6.93;4.22;;;15.50;43.90;;;;;;5013340;28;20026;-85
2021/05/03 16:35:41;;;;;;;6.28;4.18;;;15.40;43.40;;;;;;5000031;28;20115;-85
2021/05/03 16:38:07;;;;;;;5.45;3.80;;;15.40;44.50;;;;;;4996173;28;20054;-87
2021/05/03 16:40:33;;;;;;;7.10;4.65;;;15.40;44.30;;;;;;4996198;28;20540;-85
2021/05/03 16:43:00;;;;;;;6.18;4.30;;;15.40;44.40;;;;;;4995943;28;20022;-85